KAUM/AUM METAR and TAF weather

Enter ICAO airport designator
Station Type Date Time Source
KAUM METAR 2018/12/10 19:35 UTC NOAA

KAUM 101935Z AUTO 23003KT 3SM BR OVC006 M06/M07 A3013 RMK AO2


Station Type Date Time Source
KAUM Decoded METAR 2018/12/10 19:35 UTC NOAA

Austin Municipal, MN, United States (KAUM) 43-40N 092-56W
Dec 10, 2018 - 02:35 PM EST / 2018.12.10 1935 UTC
Wind: from the SW (230 degrees) at 3 MPH (3 KT):0
Visibility: 3 mile(s):0
Sky conditions: overcast
Weather: mist
Temperature: 21 F (-6 C)
Dew Point: 19 F (-7 C)
Relative Humidity: 92%
Pressure (altimeter): 30.13 in. Hg (1020 hPa)
ob: KAUM 101935Z AUTO 23003KT 3SM BR OVC006 M06/M07 A3013 RMK AO2
cycle: 19

Station Type Date Time Source
KAUM TAF UTC NOAA

Error!


Example: see airport list